sensor_id;sensor_type;location;lat;lon;timestamp;temperature;humidity
62339;DHT22;48368;53.406;6.214;2023-02-11T00:01:46;5.40;99.90
62339;DHT22;48368;53.406;6.214;2023-02-11T00:04:11;5.50;99.90
62339;DHT22;48368;53.406;6.214;2023-02-11T00:06:37;5.50;99.90
62339;DHT22;48368;53.406;6.214;2023-02-11T00:09:04;5.50;99.90
62339;DHT22;48368;53.406;6.214;2023-02-11T00:11:29;5.50;99.90
62339;DHT22;48368;53.406;6.214;2023-02-11T00:14:00;5.50;99.90
62339;DHT22;48368;53.406;6.214;2023-02-11T00:16:27;5.40;99.90
62339;DHT22;48368;53.406;6.214;2023-02-11T00:18:53;5.50;99.90
62339;DHT22;48368;53.406;6.214;2023-02-11T00:21:22;5.50;99.90
62339;DHT22;48368;53.406;6.214;2023-02-11T00:23:48;5.50;99.90
62339;DHT22;48368;53.406;6.214;2023-02-11T00:26:28;5.50;99.90
62339;DHT22;48368;53.406;6.214;2023-02-11T00:28:54;5.60;99.90
62339;DHT22;48368;53.406;6.214;2023-02-11T00:31:24;5.60;99.90
62339;DHT22;48368;53.406;6.214;2023-02-11T00:33:50;5.60;99.90
62339;DHT22;48368;53.406;6.214;2023-02-11T00:36:22;5.60;99.90
62339;DHT22;48368;53.406;6.214;2023-02-11T00:38:49;5.70;99.90
62339;DHT22;48368;53.406;6.214;2023-02-11T00:41:15;5.60;99.90
62339;DHT22;48368;53.406;6.214;2023-02-11T00:43:41;5.60;99.90
62339;DHT22;48368;53.406;6.214;2023-02-11T00:46:08;5.70;99.90
62339;DHT22;48368;53.406;6.214;2023-02-11T00:48:33;5.80;99.90
62339;DHT22;48368;53.406;6.214;2023-02-11T00:51:00;5.70;99.90
62339;DHT22;48368;53.406;6.214;2023-02-11T00:53:26;5.80;99.90
62339;DHT22;48368;53.406;6.214;2023-02-11T00:55:52;5.80;99.90
62339;DHT22;48368;53.406;6.214;2023-02-11T00:58:17;5.80;99.90
62339;DHT22;48368;53.406;6.214;2023-02-11T01:00:43;5.90;99.90
62339;DHT22;48368;53.406;6.214;2023-02-11T01:03:09;5.90;99.90
62339;DHT22;48368;53.406;6.214;2023-02-11T01:05:34;5.80;99.90
62339;DHT22;48368;53.406;6.214;2023-02-11T01:08:00;6.00;99.90
62339;DHT22;48368;53.406;6.214;2023-02-11T01:10:26;5.90;99.90
62339;DHT22;48368;53.406;6.214;2023-02-11T01:12:53;6.00;99.90
62339;DHT22;48368;53.406;6.214;2023-02-11T01:15:20;6.00;99.90
62339;DHT22;48368;53.406;6.214;2023-02-11T01:17:46;5.90;99.90
62339;DHT22;48368;53.406;6.214;2023-02-11T01:20:18;6.00;99.90
62339;DHT22;48368;53.406;6.214;2023-02-11T01:22:44;6.10;99.90
62339;DHT22;48368;53.406;6.214;2023-02-11T01:25:10;6.00;99.90
62339;DHT22;48368;53.406;6.214;2023-02-11T01:27:36;6.00;99.90
62339;DHT22;48368;53.406;6.214;2023-02-11T01:30:02;6.10;99.90
62339;DHT22;48368;53.406;6.214;2023-02-11T01:32:28;6.20;99.90
62339;DHT22;48368;53.406;6.214;2023-02-11T01:34:54;6.20;99.90
62339;DHT22;48368;53.406;6.214;2023-02-11T01:37:20;6.10;99.90
62339;DHT22;48368;53.406;6.214;2023-02-11T01:39:45;6.20;99.90
62339;DHT22;48368;53.406;6.214;2023-02-11T01:42:15;6.20;99.90
62339;DHT22;48368;53.406;6.214;2023-02-11T01:44:41;6.20;99.90
62339;DHT22;48368;53.406;6.214;2023-02-11T01:47:07;6.20;99.90
62339;DHT22;48368;53.406;6.214;2023-02-11T01:49:37;6.20;99.90
62339;DHT22;48368;53.406;6.214;2023-02-11T01:52:20;6.20;99.90
62339;DHT22;48368;53.406;6.214;2023-02-11T01:55:00;6.20;99.90
62339;DHT22;48368;53.406;6.214;2023-02-11T01:57:50;6.30;99.90
62339;DHT22;48368;53.406;6.214;2023-02-11T02:00:26;6.20;99.90
62339;DHT22;48368;53.406;6.214;2023-02-11T02:05:41;6.30;99.90
62339;DHT22;48368;53.406;6.214;2023-02-11T02:10:47;6.30;99.90
62339;DHT22;48368;53.406;6.214;2023-02-11T02:13:14;6.30;99.90
62339;DHT22;48368;53.406;6.214;2023-02-11T02:15:45;6.30;99.90
62339;DHT22;48368;53.406;6.214;2023-02-11T02:29:55;6.40;99.90
62339;DHT22;48368;53.406;6.214;2023-02-11T02:35:41;6.50;99.90
62339;DHT22;48368;53.406;6.214;2023-02-11T02:38:22;6.50;99.90
62339;DHT22;48368;53.406;6.214;2023-02-11T02:41:11;6.40;99.90
62339;DHT22;48368;53.406;6.214;2023-02-11T02:43:44;6.40;99.90
62339;DHT22;48368;53.406;6.214;2023-02-11T02:46:21;6.50;99.90
62339;DHT22;48368;53.406;6.214;2023-02-11T02:48:48;6.50;99.90
62339;DHT22;48368;53.406;6.214;2023-02-11T02:59:47;6.40;99.90
62339;DHT22;48368;53.406;6.214;2023-02-11T03:02:32;6.50;99.90
62339;DHT22;48368;53.406;6.214;2023-02-11T03:08:16;6.50;99.90
62339;DHT22;48368;53.406;6.214;2023-02-11T03:10:49;6.60;99.90
62339;DHT22;48368;53.406;6.214;2023-02-11T03:13:18;6.50;99.90
62339;DHT22;48368;53.406;6.214;2023-02-11T03:15:48;6.60;99.90
62339;DHT22;48368;53.406;6.214;2023-02-11T03:18:17;6.70;99.90
62339;DHT22;48368;53.406;6.214;2023-02-11T03:20:44;6.60;99.90
62339;DHT22;48368;53.406;6.214;2023-02-11T03:23:23;6.60;99.90
62339;DHT22;48368;53.406;6.214;2023-02-11T03:25:58;6.70;99.90
62339;DHT22;48368;53.406;6.214;2023-02-11T03:28:45;6.60;99.90
62339;DHT22;48368;53.406;6.214;2023-02-11T03:34:05;6.70;99.90
62339;DHT22;48368;53.406;6.214;2023-02-11T03:36:48;6.60;99.90
62339;DHT22;48368;53.406;6.214;2023-02-11T03:39:20;6.60;99.90
62339;DHT22;48368;53.406;6.214;2023-02-11T03:41:48;6.80;99.90
62339;DHT22;48368;53.406;6.214;2023-02-11T03:44:14;6.80;99.90
62339;DHT22;48368;53.406;6.214;2023-02-11T03:46:46;6.80;99.90
62339;DHT22;48368;53.406;6.214;2023-02-11T03:49:14;6.80;99.90
62339;DHT22;48368;53.406;6.214;2023-02-11T03:51:42;6.70;99.90
62339;DHT22;48368;53.406;6.214;2023-02-11T03:54:12;6.70;99.90
62339;DHT22;48368;53.406;6.214;2023-02-11T03:56:48;6.80;99.90
62339;DHT22;48368;53.406;6.214;2023-02-11T03:59:15;6.80;99.90
62339;DHT22;48368;53.406;6.214;2023-02-11T04:01:40;6.80;99.90
62339;DHT22;48368;53.406;6.214;2023-02-11T04:04:06;6.70;99.90
62339;DHT22;48368;53.406;6.214;2023-02-11T04:06:32;6.90;99.90
62339;DHT22;48368;53.406;6.214;2023-02-11T04:08:57;6.80;99.90
62339;DHT22;48368;53.406;6.214;2023-02-11T04:11:23;6.90;99.90
62339;DHT22;48368;53.406;6.214;2023-02-11T04:13:49;6.90;99.90
62339;DHT22;48368;53.406;6.214;2023-02-11T04:16:14;6.80;99.90
62339;DHT22;48368;53.406;6.214;2023-02-11T04:18:40;6.80;99.90
62339;DHT22;48368;53.406;6.214;2023-02-11T04:21:05;6.90;99.90
62339;DHT22;48368;53.406;6.214;2023-02-11T04:23:31;6.90;99.90
62339;DHT22;48368;53.406;6.214;2023-02-11T04:25:58;6.90;99.90
62339;DHT22;48368;53.406;6.214;2023-02-11T04:28:23;6.90;99.90
62339;DHT22;48368;53.406;6.214;2023-02-11T04:30:51;6.80;99.90
62339;DHT22;48368;53.406;6.214;2023-02-11T04:33:16;6.80;99.90
62339;DHT22;48368;53.406;6.214;2023-02-11T04:35:42;6.90;99.90
62339;DHT22;48368;53.406;6.214;2023-02-11T04:38:08;6.90;99.90
62339;DHT22;48368;53.406;6.214;2023-02-11T04:40:33;6.90;99.90
62339;DHT22;48368;53.406;6.214;2023-02-11T04:42:59;6.90;99.90
62339;DHT22;48368;53.406;6.214;2023-02-11T04:45:25;6.90;99.90
62339;DHT22;48368;53.406;6.214;2023-02-11T04:47:50;6.90;99.90
62339;DHT22;48368;53.406;6.214;2023-02-11T04:50:16;6.90;99.90
62339;DHT22;48368;53.406;6.214;2023-02-11T04:52:41;6.90;99.90
62339;DHT22;48368;53.406;6.214;2023-02-11T04:55:07;6.90;99.90
62339;DHT22;48368;53.406;6.214;2023-02-11T04:57:33;6.80;99.90
62339;DHT22;48368;53.406;6.214;2023-02-11T04:59:58;6.90;99.90
62339;DHT22;48368;53.406;6.214;2023-02-11T05:02:24;6.90;99.90
62339;DHT22;48368;53.406;6.214;2023-02-11T05:04:49;6.90;99.90
62339;DHT22;48368;53.406;6.214;2023-02-11T05:07:15;7.00;99.90
62339;DHT22;48368;53.406;6.214;2023-02-11T05:09:41;6.90;99.90
62339;DHT22;48368;53.406;6.214;2023-02-11T05:12:06;6.80;99.90
62339;DHT22;48368;53.406;6.214;2023-02-11T05:14:32;6.90;99.90
62339;DHT22;48368;53.406;6.214;2023-02-11T05:16:58;6.90;99.90
62339;DHT22;48368;53.406;6.214;2023-02-11T05:19:23;6.90;99.90
62339;DHT22;48368;53.406;6.214;2023-02-11T05:21:49;6.90;99.90
62339;DHT22;48368;53.406;6.214;2023-02-11T05:24:15;6.80;99.90
62339;DHT22;48368;53.406;6.214;2023-02-11T05:26:40;6.90;99.90
62339;DHT22;48368;53.406;6.214;2023-02-11T05:29:06;6.80;99.90
62339;DHT22;48368;53.406;6.214;2023-02-11T05:31:32;6.90;99.90
62339;DHT22;48368;53.406;6.214;2023-02-11T05:33:57;6.90;99.90
62339;DHT22;48368;53.406;6.214;2023-02-11T05:36:23;6.80;99.90
62339;DHT22;48368;53.406;6.214;2023-02-11T05:38:49;6.90;99.90
62339;DHT22;48368;53.406;6.214;2023-02-11T05:41:15;6.80;99.90
62339;DHT22;48368;53.406;6.214;2023-02-11T05:43:41;6.90;99.90
62339;DHT22;48368;53.406;6.214;2023-02-11T05:46:06;6.90;99.90
62339;DHT22;48368;53.406;6.214;2023-02-11T05:48:32;6.80;99.90
62339;DHT22;48368;53.406;6.214;2023-02-11T05:50:58;6.80;99.90
62339;DHT22;48368;53.406;6.214;2023-02-11T05:53:24;6.90;99.90
62339;DHT22;48368;53.406;6.214;2023-02-11T05:55:49;6.80;99.90
62339;DHT22;48368;53.406;6.214;2023-02-11T05:58:15;6.90;99.90
62339;DHT22;48368;53.406;6.214;2023-02-11T06:00:41;6.90;99.90
62339;DHT22;48368;53.406;6.214;2023-02-11T06:03:06;6.80;99.90
62339;DHT22;48368;53.406;6.214;2023-02-11T06:05:32;6.80;99.90
62339;DHT22;48368;53.406;6.214;2023-02-11T06:07:58;6.80;99.90
62339;DHT22;48368;53.406;6.214;2023-02-11T06:10:24;6.80;99.90
62339;DHT22;48368;53.406;6.214;2023-02-11T06:12:50;6.80;99.90
62339;DHT22;48368;53.406;6.214;2023-02-11T06:15:15;6.80;99.90
62339;DHT22;48368;53.406;6.214;2023-02-11T06:17:41;6.90;99.90
62339;DHT22;48368;53.406;6.214;2023-02-11T06:20:07;6.80;99.90
62339;DHT22;48368;53.406;6.214;2023-02-11T06:22:35;6.90;99.90
62339;DHT22;48368;53.406;6.214;2023-02-11T06:25:00;6.80;99.90
62339;DHT22;48368;53.406;6.214;2023-02-11T06:27:26;6.90;99.90
62339;DHT22;48368;53.406;6.214;2023-02-11T06:29:52;6.90;99.90
62339;DHT22;48368;53.406;6.214;2023-02-11T06:32:18;6.90;99.90
62339;DHT22;48368;53.406;6.214;2023-02-11T06:34:44;6.90;99.90
62339;DHT22;48368;53.406;6.214;2023-02-11T06:37:10;6.90;99.90
62339;DHT22;48368;53.406;6.214;2023-02-11T06:39:36;6.90;99.90
62339;DHT22;48368;53.406;6.214;2023-02-11T06:42:01;6.90;99.90
62339;DHT22;48368;53.406;6.214;2023-02-11T06:44:27;6.80;99.90
62339;DHT22;48368;53.406;6.214;2023-02-11T06:46:53;6.80;99.90
62339;DHT22;48368;53.406;6.214;2023-02-11T06:49:18;6.80;99.90
62339;DHT22;48368;53.406;6.214;2023-02-11T06:51:44;6.70;99.90
62339;DHT22;48368;53.406;6.214;2023-02-11T06:54:10;6.60;99.90
62339;DHT22;48368;53.406;6.214;2023-02-11T06:56:38;6.60;99.90
62339;DHT22;48368;53.406;6.214;2023-02-11T06:59:04;6.70;99.90
62339;DHT22;48368;53.406;6.214;2023-02-11T07:01:30;6.60;99.90
62339;DHT22;48368;53.406;6.214;2023-02-11T07:03:56;6.60;99.90
62339;DHT22;48368;53.406;6.214;2023-02-11T07:06:24;6.60;99.90
62339;DHT22;48368;53.406;6.214;2023-02-11T07:08:52;6.60;99.90
62339;DHT22;48368;53.406;6.214;2023-02-11T07:11:22;6.50;99.90
62339;DHT22;48368;53.406;6.214;2023-02-11T07:13:49;6.50;99.90
62339;DHT22;48368;53.406;6.214;2023-02-11T07:16:17;6.60;99.90
62339;DHT22;48368;53.406;6.214;2023-02-11T07:18:43;6.60;99.90
62339;DHT22;48368;53.406;6.214;2023-02-11T07:21:13;6.60;99.90
62339;DHT22;48368;53.406;6.214;2023-02-11T07:23:39;6.60;99.90
62339;DHT22;48368;53.406;6.214;2023-02-11T07:26:07;6.50;99.90
62339;DHT22;48368;53.406;6.214;2023-02-11T07:28:35;6.50;99.90
62339;DHT22;48368;53.406;6.214;2023-02-11T07:31:08;6.50;99.90
62339;DHT22;48368;53.406;6.214;2023-02-11T07:33:34;6.40;99.90
62339;DHT22;48368;53.406;6.214;2023-02-11T07:36:00;6.50;99.90
62339;DHT22;48368;53.406;6.214;2023-02-11T07:38:26;6.50;99.90
62339;DHT22;48368;53.406;6.214;2023-02-11T07:40:52;6.60;99.90
62339;DHT22;48368;53.406;6.214;2023-02-11T07:43:18;6.60;99.90
62339;DHT22;48368;53.406;6.214;2023-02-11T07:45:44;6.50;99.90
62339;DHT22;48368;53.406;6.214;2023-02-11T07:48:09;6.60;99.90
62339;DHT22;48368;53.406;6.214;2023-02-11T07:50:35;6.50;99.90
62339;DHT22;48368;53.406;6.214;2023-02-11T07:53:01;6.60;99.90
62339;DHT22;48368;53.406;6.214;2023-02-11T07:55:27;6.60;99.90
62339;DHT22;48368;53.406;6.214;2023-02-11T07:57:53;6.70;99.90
62339;DHT22;48368;53.406;6.214;2023-02-11T08:00:19;6.60;99.90
62339;DHT22;48368;53.406;6.214;2023-02-11T08:02:47;6.70;99.90
62339;DHT22;48368;53.406;6.214;2023-02-11T08:05:12;6.70;99.90
62339;DHT22;48368;53.406;6.214;2023-02-11T08:07:38;6.70;99.90
62339;DHT22;48368;53.406;6.214;2023-02-11T08:10:04;6.80;99.90
62339;DHT22;48368;53.406;6.214;2023-02-11T08:12:30;6.80;99.90
62339;DHT22;48368;53.406;6.214;2023-02-11T08:14:55;6.90;99.90
62339;DHT22;48368;53.406;6.214;2023-02-11T08:17:21;7.00;99.90
62339;DHT22;48368;53.406;6.214;2023-02-11T08:19:47;7.10;99.90
62339;DHT22;48368;53.406;6.214;2023-02-11T08:22:12;7.10;99.90
62339;DHT22;48368;53.406;6.214;2023-02-11T08:24:38;7.20;99.90
62339;DHT22;48368;53.406;6.214;2023-02-11T08:27:03;7.30;99.90
62339;DHT22;48368;53.406;6.214;2023-02-11T08:29:29;7.30;99.90
62339;DHT22;48368;53.406;6.214;2023-02-11T08:31:55;7.30;99.90
62339;DHT22;48368;53.406;6.214;2023-02-11T08:34:20;7.30;99.90
62339;DHT22;48368;53.406;6.214;2023-02-11T08:36:47;7.40;99.90
62339;DHT22;48368;53.406;6.214;2023-02-11T08:39:18;7.40;99.90
62339;DHT22;48368;53.406;6.214;2023-02-11T08:41:49;7.40;99.90
62339;DHT22;48368;53.406;6.214;2023-02-11T08:44:17;7.40;99.90
62339;DHT22;48368;53.406;6.214;2023-02-11T08:46:42;7.30;99.90
62339;DHT22;48368;53.406;6.214;2023-02-11T08:49:08;7.30;99.90
62339;DHT22;48368;53.406;6.214;2023-02-11T08:51:34;7.20;99.90
62339;DHT22;48368;53.406;6.214;2023-02-11T08:53:59;7.30;99.90
62339;DHT22;48368;53.406;6.214;2023-02-11T08:56:26;7.40;99.90
62339;DHT22;48368;53.406;6.214;2023-02-11T08:58:52;7.40;99.90
62339;DHT22;48368;53.406;6.214;2023-02-11T09:01:24;7.40;99.90
62339;DHT22;48368;53.406;6.214;2023-02-11T09:03:51;7.60;99.90
62339;DHT22;48368;53.406;6.214;2023-02-11T09:06:17;7.50;99.90
62339;DHT22;48368;53.406;6.214;2023-02-11T09:08:44;7.70;99.90
62339;DHT22;48368;53.406;6.214;2023-02-11T09:11:11;7.80;99.90
62339;DHT22;48368;53.406;6.214;2023-02-11T09:13:36;7.90;99.90
62339;DHT22;48368;53.406;6.214;2023-02-11T09:16:04;8.00;99.90
62339;DHT22;48368;53.406;6.214;2023-02-11T09:18:30;8.00;99.90
62339;DHT22;48368;53.406;6.214;2023-02-11T09:21:06;8.10;99.90
62339;DHT22;48368;53.406;6.214;2023-02-11T09:23:33;8.10;99.90
62339;DHT22;48368;53.406;6.214;2023-02-11T09:26:06;8.20;99.90
62339;DHT22;48368;53.406;6.214;2023-02-11T09:28:32;8.20;99.90
62339;DHT22;48368;53.406;6.214;2023-02-11T09:30:58;8.30;99.90
62339;DHT22;48368;53.406;6.214;2023-02-11T09:33:24;8.30;99.90
62339;DHT22;48368;53.406;6.214;2023-02-11T09:35:49;8.30;99.90
62339;DHT22;48368;53.406;6.214;2023-02-11T09:38:15;8.40;99.90
62339;DHT22;48368;53.406;6.214;2023-02-11T09:40:42;8.40;99.90
62339;DHT22;48368;53.406;6.214;2023-02-11T09:43:16;8.30;99.90
62339;DHT22;48368;53.406;6.214;2023-02-11T09:45:44;8.40;99.90
62339;DHT22;48368;53.406;6.214;2023-02-11T09:48:14;8.40;99.90
62339;DHT22;48368;53.406;6.214;2023-02-11T09:50:54;8.40;99.90
62339;DHT22;48368;53.406;6.214;2023-02-11T09:53:24;8.40;99.90
62339;DHT22;48368;53.406;6.214;2023-02-11T09:55:55;8.30;99.90
62339;DHT22;48368;53.406;6.214;2023-02-11T09:58:40;8.40;99.90
62339;DHT22;48368;53.406;6.214;2023-02-11T10:01:40;8.50;99.90
62339;DHT22;48368;53.406;6.214;2023-02-11T10:04:28;8.40;99.90
62339;DHT22;48368;53.406;6.214;2023-02-11T10:13:02;8.60;99.90
62339;DHT22;48368;53.406;6.214;2023-02-11T10:23:29;8.80;99.90
62339;DHT22;48368;53.406;6.214;2023-02-11T10:25:57;8.80;99.90
62339;DHT22;48368;53.406;6.214;2023-02-11T10:28:34;8.90;99.90
62339;DHT22;48368;53.406;6.214;2023-02-11T10:36:11;9.00;99.90
62339;DHT22;48368;53.406;6.214;2023-02-11T10:38:37;9.10;99.90
62339;DHT22;48368;53.406;6.214;2023-02-11T10:41:03;9.20;99.90
62339;DHT22;48368;53.406;6.214;2023-02-11T10:43:30;9.20;99.90
62339;DHT22;48368;53.406;6.214;2023-02-11T10:46:02;9.30;99.90
62339;DHT22;48368;53.406;6.214;2023-02-11T10:48:48;9.40;99.90
62339;DHT22;48368;53.406;6.214;2023-02-11T10:56:33;9.50;99.90
62339;DHT22;48368;53.406;6.214;2023-02-11T10:59:24;9.50;99.90
62339;DHT22;48368;53.406;6.214;2023-02-11T11:01:54;9.50;99.90
62339;DHT22;48368;53.406;6.214;2023-02-11T11:09:49;9.60;99.90
62339;DHT22;48368;53.406;6.214;2023-02-11T11:12:30;9.70;99.90
62339;DHT22;48368;53.406;6.214;2023-02-11T11:14:59;9.80;99.90
62339;DHT22;48368;53.406;6.214;2023-02-11T11:17:25;9.90;99.90
62339;DHT22;48368;53.406;6.214;2023-02-11T11:22:44;10.00;99.90
62339;DHT22;48368;53.406;6.214;2023-02-11T11:25:30;10.10;99.90
62339;DHT22;48368;53.406;6.214;2023-02-11T11:27:58;10.10;99.90
62339;DHT22;48368;53.406;6.214;2023-02-11T11:30:32;10.10;99.90
62339;DHT22;48368;53.406;6.214;2023-02-11T11:32:59;10.00;99.90
62339;DHT22;48368;53.406;6.214;2023-02-11T11:35:27;10.00;99.90
62339;DHT22;48368;53.406;6.214;2023-02-11T11:37:57;9.90;99.90
62339;DHT22;48368;53.406;6.214;2023-02-11T11:40:27;9.90;99.90
62339;DHT22;48368;53.406;6.214;2023-02-11T11:45:37;9.90;99.90
62339;DHT22;48368;53.406;6.214;2023-02-11T11:48:22;9.80;99.90
62339;DHT22;48368;53.406;6.214;2023-02-11T11:51:01;9.80;99.90
62339;DHT22;48368;53.406;6.214;2023-02-11T11:56:20;9.80;99.90
62339;DHT22;48368;53.406;6.214;2023-02-11T11:58:47;9.80;99.90
62339;DHT22;48368;53.406;6.214;2023-02-11T12:01:27;9.70;99.90
62339;DHT22;48368;53.406;6.214;2023-02-11T12:04:17;9.80;99.90
62339;DHT22;48368;53.406;6.214;2023-02-11T12:07:23;9.70;99.90
62339;DHT22;48368;53.406;6.214;2023-02-11T12:10:20;9.80;99.90
62339;DHT22;48368;53.406;6.214;2023-02-11T12:18:53;9.60;99.90
62339;DHT22;48368;53.406;6.214;2023-02-11T12:24:43;9.70;99.90
62339;DHT22;48368;53.406;6.214;2023-02-11T12:30:02;9.80;99.90
62339;DHT22;48368;53.406;6.214;2023-02-11T12:32:47;9.80;99.90
62339;DHT22;48368;53.406;6.214;2023-02-11T12:35:30;9.70;99.90
62339;DHT22;48368;53.406;6.214;2023-02-11T12:38:17;9.80;99.90
62339;DHT22;48368;53.406;6.214;2023-02-11T12:43:35;9.60;99.90
62339;DHT22;48368;53.406;6.214;2023-02-11T12:54:39;9.60;99.90
62339;DHT22;48368;53.406;6.214;2023-02-11T13:00:06;9.50;99.90
62339;DHT22;48368;53.406;6.214;2023-02-11T13:02:43;9.40;99.90
62339;DHT22;48368;53.406;6.214;2023-02-11T13:05:26;9.50;99.90
62339;DHT22;48368;53.406;6.214;2023-02-11T13:08:18;9.40;99.90
62339;DHT22;48368;53.406;6.214;2023-02-11T13:10:46;9.40;99.90
62339;DHT22;48368;53.406;6.214;2023-02-11T13:13:25;9.30;99.90
62339;DHT22;48368;53.406;6.214;2023-02-11T13:16:02;9.20;99.90
62339;DHT22;48368;53.406;6.214;2023-02-11T13:18:59;9.20;99.90
62339;DHT22;48368;53.406;6.214;2023-02-11T13:21:35;9.20;99.90
62339;DHT22;48368;53.406;6.214;2023-02-11T13:33:01;9.20;99.90
62339;DHT22;48368;53.406;6.214;2023-02-11T13:35:38;9.30;99.90
62339;DHT22;48368;53.406;6.214;2023-02-11T13:38:05;9.30;99.90
62339;DHT22;48368;53.406;6.214;2023-02-11T13:40:42;9.20;99.90
62339;DHT22;48368;53.406;6.214;2023-02-11T13:43:22;9.20;99.90
62339;DHT22;48368;53.406;6.214;2023-02-11T13:45:49;9.10;99.90
62339;DHT22;48368;53.406;6.214;2023-02-11T13:48:22;9.20;99.90
62339;DHT22;48368;53.406;6.214;2023-02-11T13:50:55;9.10;99.90
62339;DHT22;48368;53.406;6.214;2023-02-11T13:53:21;9.10;99.90
62339;DHT22;48368;53.406;6.214;2023-02-11T13:55:49;9.10;99.90
62339;DHT22;48368;53.406;6.214;2023-02-11T13:58:18;9.10;99.90
62339;DHT22;48368;53.406;6.214;2023-02-11T14:00:57;9.00;99.90
62339;DHT22;48368;53.406;6.214;2023-02-11T14:03:34;9.00;99.90
62339;DHT22;48368;53.406;6.214;2023-02-11T14:06:24;9.00;99.90
62339;DHT22;48368;53.406;6.214;2023-02-11T14:11:45;8.90;99.90
62339;DHT22;48368;53.406;6.214;2023-02-11T14:19:35;9.00;99.90
62339;DHT22;48368;53.406;6.214;2023-02-11T14:22:25;9.00;99.90
62339;DHT22;48368;53.406;6.214;2023-02-11T14:25:00;8.90;99.90
62339;DHT22;48368;53.406;6.214;2023-02-11T14:27:39;8.90;99.90
62339;DHT22;48368;53.406;6.214;2023-02-11T14:35:59;8.70;99.90
62339;DHT22;48368;53.406;6.214;2023-02-11T14:41:23;8.70;99.90
62339;DHT22;48368;53.406;6.214;2023-02-11T14:44:02;8.70;99.90
62339;DHT22;48368;53.406;6.214;2023-02-11T14:46:29;8.60;99.90
62339;DHT22;48368;53.406;6.214;2023-02-11T14:48:59;8.60;99.90
62339;DHT22;48368;53.406;6.214;2023-02-11T14:54:00;8.50;99.90
62339;DHT22;48368;53.406;6.214;2023-02-11T14:56:28;8.60;99.90
62339;DHT22;48368;53.406;6.214;2023-02-11T14:58:59;8.60;99.90
62339;DHT22;48368;53.406;6.214;2023-02-11T15:01:30;8.60;99.90
62339;DHT22;48368;53.406;6.214;2023-02-11T15:04:01;8.60;99.90
62339;DHT22;48368;53.406;6.214;2023-02-11T15:08:57;8.50;99.90
62339;DHT22;48368;53.406;6.214;2023-02-11T15:11:26;8.50;99.90
62339;DHT22;48368;53.406;6.214;2023-02-11T15:13:54;8.50;99.90
62339;DHT22;48368;53.406;6.214;2023-02-11T15:16:25;8.50;99.90
62339;DHT22;48368;53.406;6.214;2023-02-11T15:18:59;8.40;99.90
62339;DHT22;48368;53.406;6.214;2023-02-11T15:21:28;8.50;99.90
62339;DHT22;48368;53.406;6.214;2023-02-11T15:24:00;8.50;99.90
62339;DHT22;48368;53.406;6.214;2023-02-11T15:26:27;8.50;99.90
62339;DHT22;48368;53.406;6.214;2023-02-11T15:28:52;8.40;99.90
62339;DHT22;48368;53.406;6.214;2023-02-11T15:31:25;8.40;99.90
62339;DHT22;48368;53.406;6.214;2023-02-11T15:33:52;8.40;99.90
62339;DHT22;48368;53.406;6.214;2023-02-11T15:36:23;8.30;99.90
62339;DHT22;48368;53.406;6.214;2023-02-11T15:39:26;8.30;99.90
62339;DHT22;48368;53.406;6.214;2023-02-11T15:41:53;8.30;99.90
62339;DHT22;48368;53.406;6.214;2023-02-11T15:44:29;8.30;99.90
62339;DHT22;48368;53.406;6.214;2023-02-11T15:46:56;8.40;99.90
62339;DHT22;48368;53.406;6.214;2023-02-11T15:49:23;8.30;99.90
62339;DHT22;48368;53.406;6.214;2023-02-11T15:51:50;8.40;99.90
62339;DHT22;48368;53.406;6.214;2023-02-11T15:54:22;8.30;99.90
62339;DHT22;48368;53.406;6.214;2023-02-11T15:56:51;8.40;99.90
62339;DHT22;48368;53.406;6.214;2023-02-11T15:59:25;8.30;99.90
62339;DHT22;48368;53.406;6.214;2023-02-11T16:01:52;8.30;99.90
62339;DHT22;48368;53.406;6.214;2023-02-11T16:04:21;8.20;99.90
62339;DHT22;48368;53.406;6.214;2023-02-11T16:06:48;8.30;99.90
62339;DHT22;48368;53.406;6.214;2023-02-11T16:16:48;8.10;99.90
62339;DHT22;48368;53.406;6.214;2023-02-11T16:19:18;8.10;99.90
62339;DHT22;48368;53.406;6.214;2023-02-11T16:21:44;8.10;99.90
62339;DHT22;48368;53.406;6.214;2023-02-11T16:24:39;8.00;99.90
62339;DHT22;48368;53.406;6.214;2023-02-11T16:27:47;8.00;99.90
62339;DHT22;48368;53.406;6.214;2023-02-11T16:30:31;8.00;99.90
62339;DHT22;48368;53.406;6.214;2023-02-11T16:32:57;7.90;99.90
62339;DHT22;48368;53.406;6.214;2023-02-11T16:35:23;7.90;99.90
62339;DHT22;48368;53.406;6.214;2023-02-11T16:37:49;7.90;99.90
62339;DHT22;48368;53.406;6.214;2023-02-11T16:40:15;7.90;99.90
62339;DHT22;48368;53.406;6.214;2023-02-11T16:42:40;7.80;99.90
62339;DHT22;48368;53.406;6.214;2023-02-11T16:45:06;7.80;99.90
62339;DHT22;48368;53.406;6.214;2023-02-11T16:47:34;7.80;99.90
62339;DHT22;48368;53.406;6.214;2023-02-11T16:50:03;7.80;99.90
62339;DHT22;48368;53.406;6.214;2023-02-11T16:52:32;7.80;99.90
62339;DHT22;48368;53.406;6.214;2023-02-11T16:54:58;7.80;99.90
62339;DHT22;48368;53.406;6.214;2023-02-11T16:57:25;7.80;99.90
62339;DHT22;48368;53.406;6.214;2023-02-11T16:59:51;7.80;99.90
62339;DHT22;48368;53.406;6.214;2023-02-11T17:02:21;7.80;99.90
62339;DHT22;48368;53.406;6.214;2023-02-11T17:04:47;7.70;99.90
62339;DHT22;48368;53.406;6.214;2023-02-11T17:07:13;7.80;99.90
62339;DHT22;48368;53.406;6.214;2023-02-11T17:09:38;7.70;99.90
62339;DHT22;48368;53.406;6.214;2023-02-11T17:12:04;7.60;99.90
62339;DHT22;48368;53.406;6.214;2023-02-11T17:14:30;7.70;99.90
62339;DHT22;48368;53.406;6.214;2023-02-11T17:16:56;7.70;99.90
62339;DHT22;48368;53.406;6.214;2023-02-11T17:19:22;7.70;99.90
62339;DHT22;48368;53.406;6.214;2023-02-11T17:21:50;7.70;99.90
62339;DHT22;48368;53.406;6.214;2023-02-11T17:24:17;7.70;99.90
62339;DHT22;48368;53.406;6.214;2023-02-11T17:26:44;7.70;99.90
62339;DHT22;48368;53.406;6.214;2023-02-11T17:29:13;7.70;99.90
62339;DHT22;48368;53.406;6.214;2023-02-11T17:31:39;7.60;99.90
62339;DHT22;48368;53.406;6.214;2023-02-11T17:34:06;7.60;99.90
62339;DHT22;48368;53.406;6.214;2023-02-11T17:36:31;7.50;99.90
62339;DHT22;48368;53.406;6.214;2023-02-11T17:38:58;7.60;99.90
62339;DHT22;48368;53.406;6.214;2023-02-11T17:41:25;7.60;99.90
62339;DHT22;48368;53.406;6.214;2023-02-11T17:43:51;7.60;99.90
62339;DHT22;48368;53.406;6.214;2023-02-11T17:46:17;7.60;99.90
62339;DHT22;48368;53.406;6.214;2023-02-11T17:48:43;7.60;99.90
62339;DHT22;48368;53.406;6.214;2023-02-11T17:51:27;7.50;99.90
62339;DHT22;48368;53.406;6.214;2023-02-11T17:53:56;7.60;99.90
62339;DHT22;48368;53.406;6.214;2023-02-11T17:56:22;7.60;99.90
62339;DHT22;48368;53.406;6.214;2023-02-11T17:58:48;7.50;99.90
62339;DHT22;48368;53.406;6.214;2023-02-11T18:01:14;7.50;99.90
62339;DHT22;48368;53.406;6.214;2023-02-11T18:03:40;7.40;99.90
62339;DHT22;48368;53.406;6.214;2023-02-11T18:06:06;7.30;99.90
62339;DHT22;48368;53.406;6.214;2023-02-11T18:08:34;7.30;99.90
62339;DHT22;48368;53.406;6.214;2023-02-11T18:11:00;7.20;99.90
62339;DHT22;48368;53.406;6.214;2023-02-11T18:13:27;7.10;99.90
62339;DHT22;48368;53.406;6.214;2023-02-11T18:15:53;7.10;99.90
62339;DHT22;48368;53.406;6.214;2023-02-11T18:18:18;7.00;99.90